Time;durP1;ratioP1;P1;durP2;ratioP2;P2;SDS_P1;SDS_P2;PMS_P1;PMS_P2;Temp;Humidity;BMP_temperature;BMP_pressure;BME280_temperature;BME280_humidity;BME280_pressure;Samples;Min_cycle;Max_cycle;Signal;HPM_P1;HPM_P2
2021/05/03 00:01:21;;;;;;;5.72;3.42;;;5.20;72.90;;;;;;5083931;28;20172;-75
2021/05/03 00:03:47;;;;;;;6.30;3.45;;;5.20;73.00;;;;;;5047329;28;20028;-75
2021/05/03 00:06:12;;;;;;;5.80;3.83;;;5.10;73.20;;;;;;5088403;28;20469;-75
2021/05/03 00:08:39;;;;;;;7.00;3.58;;;5.10;73.20;;;;;;5084135;28;20422;-74
2021/05/03 00:11:05;;;;;;;11.50;4.13;;;5.00;73.30;;;;;;5084751;28;20063;-75
2021/05/03 00:13:31;;;;;;;7.40;3.30;;;5.00;73.60;;;;;;5077420;28;20060;-75
2021/05/03 00:15:56;;;;;;;7.57;3.20;;;4.90;73.60;;;;;;5082183;28;20055;-75
2021/05/03 00:18:22;;;;;;;6.40;3.70;;;4.90;73.60;;;;;;5078017;28;20401;-75
2021/05/03 00:20:48;;;;;;;5.80;3.40;;;4.90;73.60;;;;;;5085937;28;20027;-74
2021/05/03 00:23:14;;;;;;;5.95;3.38;;;4.90;73.70;;;;;;5083718;28;20061;-74
2021/05/03 00:25:39;;;;;;;4.80;3.10;;;5.00;73.60;;;;;;5082848;28;20401;-74
2021/05/03 00:28:05;;;;;;;10.35;3.13;;;5.00;73.50;;;;;;5082064;28;20127;-75
2021/05/03 00:30:31;;;;;;;7.80;3.70;;;5.00;73.30;;;;;;5066189;28;20024;-75
2021/05/03 00:32:57;;;;;;;8.38;3.67;;;5.10;73.20;;;;;;5065185;28;20078;-75
2021/05/03 00:35:23;;;;;;;6.10;3.67;;;5.00;73.20;;;;;;5086751;28;20043;-74
2021/05/03 00:37:49;;;;;;;6.20;3.45;;;5.00;73.20;;;;;;5082314;28;20024;-75
2021/05/03 00:40:14;;;;;;;4.72;3.40;;;5.00;73.20;;;;;;5081984;28;20035;-75
2021/05/03 00:42:43;;;;;;;6.72;3.38;;;4.90;73.20;;;;;;5064885;28;20027;-75
2021/05/03 00:45:19;;;;;;;7.60;3.70;;;4.90;73.20;;;;;;5063743;28;20028;-74
2021/05/03 00:47:45;;;;;;;5.50;3.30;;;4.90;73.30;;;;;;5086453;28;20493;-75
2021/05/03 00:50:14;;;;;;;6.13;3.38;;;4.80;73.20;;;;;;5086081;28;20066;-75
2021/05/03 00:52:40;;;;;;;7.47;3.50;;;4.80;73.30;;;;;;5080978;28;20035;-75
2021/05/03 00:55:07;;;;;;;5.97;3.75;;;4.70;73.20;;;;;;5082853;28;20024;-75
2021/05/03 00:57:33;;;;;;;5.10;3.83;;;4.70;73.30;;;;;;5062636;28;20093;-75
2021/05/03 00:59:59;;;;;;;7.60;4.28;;;4.60;73.50;;;;;;5079271;28;20473;-75
2021/05/03 01:02:25;;;;;;;8.40;4.50;;;4.60;73.70;;;;;;5082156;28;20050;-75
2021/05/03 01:04:50;;;;;;;12.40;3.95;;;4.50;73.90;;;;;;5064070;28;20481;-75
2021/05/03 01:07:16;;;;;;;5.53;4.28;;;4.50;74.00;;;;;;5081347;28;20043;-75
2021/05/03 01:09:42;;;;;;;6.35;4.32;;;4.50;74.00;;;;;;5079758;28;20484;-75
2021/05/03 01:12:09;;;;;;;6.45;4.38;;;4.50;74.20;;;;;;5063443;28;20039;-75
2021/05/03 01:14:35;;;;;;;6.78;4.45;;;4.50;74.50;;;;;;5081671;28;20106;-75
2021/05/03 01:17:01;;;;;;;5.57;4.25;;;4.50;74.70;;;;;;5064180;28;20021;-74
2021/05/03 01:19:28;;;;;;;13.95;4.45;;;4.50;74.80;;;;;;5065921;28;20024;-75
2021/05/03 01:21:54;;;;;;;7.75;4.65;;;4.50;74.80;;;;;;5082844;28;20473;-75
2021/05/03 01:24:19;;;;;;;5.50;4.50;;;4.50;74.80;;;;;;5082344;28;20043;-75
2021/05/03 01:26:46;;;;;;;7.60;4.78;;;4.50;75.60;;;;;;5068543;28;20044;-74
2021/05/03 01:29:13;;;;;;;6.00;4.47;;;4.50;75.00;;;;;;5059036;28;20089;-75
2021/05/03 01:31:39;;;;;;;5.28;4.47;;;4.50;75.00;;;;;;5058575;28;20038;-75
2021/05/03 01:34:05;;;;;;;9.05;4.38;;;4.50;74.90;;;;;;5059157;28;20041;-75
2021/05/03 01:36:34;;;;;;;8.02;5.00;;;4.50;74.90;;;;;;5062391;28;20036;-75
2021/05/03 01:39:00;;;;;;;10.13;5.13;;;4.50;74.90;;;;;;5062764;28;20353;-75
2021/05/03 01:41:25;;;;;;;9.30;4.85;;;4.50;75.00;;;;;;5060497;28;20131;-74
2021/05/03 01:43:51;;;;;;;16.58;5.55;;;4.40;75.10;;;;;;5066998;28;20033;-75
2021/05/03 01:46:18;;;;;;;10.02;4.75;;;4.40;75.30;;;;;;5063643;28;20481;-75
2021/05/03 01:48:43;;;;;;;10.48;5.32;;;4.40;75.40;;;;;;5063505;28;20054;-75
2021/05/03 01:51:09;;;;;;;8.18;5.22;;;4.40;75.50;;;;;;5060250;28;20033;-75
2021/05/03 01:53:36;;;;;;;6.70;5.05;;;4.40;75.60;;;;;;5044331;28;20040;-75
2021/05/03 01:56:02;;;;;;;12.52;5.38;;;4.30;75.80;;;;;;5062991;28;20028;-75
2021/05/03 01:58:27;;;;;;;10.82;5.22;;;4.20;75.90;;;;;;5060510;28;21528;-75
2021/05/03 02:00:56;;;;;;;9.00;4.82;;;4.20;75.90;;;;;;5062560;28;20052;-75
2021/05/03 02:03:27;;;;;;;8.00;5.03;;;4.20;76.00;;;;;;5059052;28;20120;-74
2021/05/03 02:05:53;;;;;;;10.82;5.25;;;4.20;76.00;;;;;;5060799;28;20119;-75
2021/05/03 02:08:19;;;;;;;6.22;4.90;;;4.20;75.90;;;;;;5063134;28;20033;-74
2021/05/03 02:10:46;;;;;;;8.00;4.55;;;4.20;75.80;;;;;;5058346;28;20377;-74
2021/05/03 02:13:13;;;;;;;9.93;4.97;;;4.20;75.80;;;;;;5062537;28;20033;-75
2021/05/03 02:15:38;;;;;;;8.45;5.45;;;4.20;75.70;;;;;;5057925;28;20066;-75
2021/05/03 02:18:05;;;;;;;9.15;5.18;;;4.20;75.60;;;;;;5060137;28;20025;-75
2021/05/03 02:20:31;;;;;;;12.65;5.35;;;4.20;75.60;;;;;;5042213;28;20033;-75
2021/05/03 02:22:57;;;;;;;8.30;4.97;;;4.20;75.60;;;;;;5061523;28;20032;-75
2021/05/03 02:25:23;;;;;;;10.32;5.53;;;4.20;75.70;;;;;;5070004;28;20036;-74
2021/05/03 02:27:49;;;;;;;8.30;5.00;;;4.20;75.80;;;;;;5083755;28;20036;-75
2021/05/03 02:30:16;;;;;;;11.98;5.25;;;4.10;75.80;;;;;;5087988;28;20036;-75
2021/05/03 02:32:43;;;;;;;15.43;5.82;;;4.20;75.80;;;;;;5081725;28;20134;-75
2021/05/03 02:35:13;;;;;;;20.70;5.78;;;4.10;75.70;;;;;;5099881;28;20036;-75
2021/05/03 02:37:39;;;;;;;17.25;5.93;;;4.20;75.70;;;;;;5083526;28;20024;-75
2021/05/03 02:40:06;;;;;;;15.32;5.45;;;4.10;75.70;;;;;;5084407;28;20032;-75
2021/05/03 02:42:31;;;;;;;10.38;5.47;;;4.10;75.80;;;;;;5085994;28;20066;-75
2021/05/03 02:44:57;;;;;;;9.15;5.28;;;4.00;75.80;;;;;;5085250;28;20036;-75
2021/05/03 02:47:23;;;;;;;10.57;5.07;;;4.00;75.90;;;;;;5083247;28;20032;-75
2021/05/03 02:49:49;;;;;;;11.93;5.70;;;3.90;76.00;;;;;;5066999;28;20032;-75
2021/05/03 02:52:14;;;;;;;11.38;6.13;;;3.90;76.00;;;;;;5064041;28;20070;-75
2021/05/03 02:54:40;;;;;;;10.02;5.72;;;3.90;76.10;;;;;;5067727;28;20036;-74
2021/05/03 02:57:06;;;;;;;11.02;5.45;;;3.90;76.20;;;;;;5086522;28;20029;-75
2021/05/03 02:59:31;;;;;;;11.20;5.53;;;3.90;76.20;;;;;;5071420;28;20020;-74
2021/05/03 03:01:57;;;;;;;9.77;6.03;;;3.90;76.10;;;;;;5085449;28;20040;-75
2021/05/03 03:04:23;;;;;;;10.10;5.40;;;3.90;76.10;;;;;;5085726;28;20034;-75
2021/05/03 03:06:48;;;;;;;8.73;5.93;;;3.80;76.10;;;;;;5065143;28;20056;-75
2021/05/03 03:09:14;;;;;;;11.45;6.40;;;3.80;76.10;;;;;;5067397;28;20044;-75
2021/05/03 03:11:43;;;;;;;11.65;6.18;;;3.80;76.40;;;;;;5084500;28;20115;-75
2021/05/03 03:14:09;;;;;;;13.57;6.63;;;3.80;76.70;;;;;;5084252;28;20027;-75
2021/05/03 03:16:35;;;;;;;9.20;6.15;;;3.70;76.80;;;;;;5065546;28;20032;-75
2021/05/03 03:19:01;;;;;;;13.13;7.25;;;3.70;77.00;;;;;;5068186;28;20048;-75
2021/05/03 03:21:26;;;;;;;10.43;6.88;;;3.70;77.20;;;;;;5065768;28;20032;-75
2021/05/03 03:23:52;;;;;;;10.13;6.82;;;3.70;77.50;;;;;;5080928;28;20044;-75
2021/05/03 03:26:19;;;;;;;10.27;6.53;;;3.60;77.60;;;;;;5082956;28;20051;-75
2021/05/03 03:28:45;;;;;;;12.23;6.05;;;3.70;77.70;;;;;;5100431;28;20029;-75
2021/05/03 03:31:11;;;;;;;10.40;6.60;;;3.70;77.70;;;;;;5085619;28;20036;-75
2021/05/03 03:33:37;;;;;;;9.88;6.40;;;3.70;77.80;;;;;;5050402;28;20033;-75
2021/05/03 03:36:03;;;;;;;9.63;6.78;;;3.60;78.00;;;;;;5082527;28;20038;-75
2021/05/03 03:38:29;;;;;;;10.48;6.55;;;3.60;78.30;;;;;;5080675;28;20063;-75
2021/05/03 03:40:54;;;;;;;9.88;6.40;;;3.60;78.60;;;;;;5082794;28;20044;-75
2021/05/03 03:43:20;;;;;;;8.40;6.75;;;3.60;79.00;;;;;;5089002;28;20020;-75
2021/05/03 03:45:46;;;;;;;8.23;6.47;;;3.60;79.10;;;;;;5084028;28;20047;-74
2021/05/03 03:48:11;;;;;;;12.80;6.93;;;3.60;79.20;;;;;;5084192;28;20110;-75
2021/05/03 03:50:37;;;;;;;10.07;6.95;;;3.60;79.30;;;;;;5067105;28;20034;-75
2021/05/03 03:53:03;;;;;;;9.98;5.90;;;3.60;79.50;;;;;;5063076;28;20032;-75
2021/05/03 03:55:29;;;;;;;9.85;6.55;;;3.60;79.60;;;;;;5086124;28;20036;-74
2021/05/03 03:57:55;;;;;;;9.30;6.10;;;3.60;79.70;;;;;;5080223;28;20073;-75
2021/05/03 04:00:22;;;;;;;10.77;6.10;;;3.70;79.80;;;;;;5083144;28;20447;-75
2021/05/03 04:02:48;;;;;;;10.27;6.15;;;3.70;80.00;;;;;;5068236;28;20538;-74
2021/05/03 04:13:30;;;;;;;15.82;7.38;;;3.70;80.30;;;;;;5069033;28;20468;-75
2021/05/03 04:26:36;;;;;;;12.18;6.53;;;3.90;80.40;;;;;;5067807;28;20063;-75
2021/05/03 04:29:03;;;;;;;10.48;6.88;;;4.00;80.10;;;;;;5048716;28;20536;-75
2021/05/03 04:31:29;;;;;;;7.25;5.90;;;4.10;80.20;;;;;;5090437;28;20032;-75
2021/05/03 04:33:54;;;;;;;9.13;6.43;;;4.10;80.30;;;;;;5063950;28;20040;-75
2021/05/03 04:36:20;;;;;;;9.65;6.80;;;4.20;80.30;;;;;;5068538;28;20024;-75
2021/05/03 04:38:47;;;;;;;13.82;5.85;;;4.20;80.40;;;;;;5083086;28;20028;-75
2021/05/03 04:41:13;;;;;;;11.55;6.22;;;4.20;80.40;;;;;;5085366;28;20036;-75
2021/05/03 04:43:39;;;;;;;10.27;5.82;;;4.30;80.30;;;;;;5064037;28;20036;-75
2021/05/03 04:46:05;;;;;;;17.25;6.85;;;4.30;80.30;;;;;;5060245;28;20127;-74
2021/05/03 04:48:31;;;;;;;10.70;6.60;;;4.40;80.30;;;;;;5084735;28;20056;-74
2021/05/03 04:50:57;;;;;;;9.85;6.18;;;4.40;80.30;;;;;;5082381;28;20453;-75
2021/05/03 04:53:23;;;;;;;11.60;6.85;;;4.50;80.40;;;;;;5082987;28;20106;-79
2021/05/03 04:55:49;;;;;;;8.75;6.13;;;4.50;80.30;;;;;;5065976;28;20029;-74
2021/05/03 04:58:15;;;;;;;9.57;5.85;;;4.60;80.30;;;;;;5065650;28;20037;-74
2021/05/03 05:00:41;;;;;;;10.07;6.60;;;4.60;80.20;;;;;;5084343;28;20430;-74
2021/05/03 05:03:07;;;;;;;9.02;6.05;;;4.60;80.20;;;;;;5081403;28;20025;-74
2021/05/03 05:05:33;;;;;;;11.63;6.60;;;4.70;80.20;;;;;;5086517;28;20038;-74
2021/05/03 05:07:59;;;;;;;11.75;7.07;;;4.70;80.20;;;;;;5083261;28;20424;-74
2021/05/03 05:10:24;;;;;;;9.00;6.03;;;4.70;80.30;;;;;;5048927;28;20032;-74
2021/05/03 05:12:50;;;;;;;13.05;7.03;;;4.70;81.00;;;;;;5081212;28;20103;-74
2021/05/03 05:15:17;;;;;;;10.65;6.93;;;4.70;80.20;;;;;;5082547;28;20046;-75
2021/05/03 05:17:43;;;;;;;9.85;6.65;;;4.80;80.20;;;;;;5080734;28;20129;-74
2021/05/03 05:20:09;;;;;;;9.45;5.93;;;4.80;80.20;;;;;;5072584;28;20061;-75
2021/05/03 05:22:38;;;;;;;8.20;6.40;;;4.80;80.10;;;;;;5079714;28;20059;-75
2021/05/03 05:25:06;;;;;;;10.20;6.60;;;4.90;80.10;;;;;;5084413;28;20028;-75
2021/05/03 05:27:32;;;;;;;11.90;6.80;;;4.90;79.90;;;;;;5063225;28;20497;-74
2021/05/03 05:29:58;;;;;;;9.60;6.65;;;5.00;79.90;;;;;;5066967;28;20080;-74
2021/05/03 05:32:23;;;;;;;9.05;6.50;;;5.00;79.90;;;;;;5089195;28;20031;-74
2021/05/03 05:34:49;;;;;;;11.90;6.80;;;5.00;79.80;;;;;;5064192;28;20036;-74
2021/05/03 05:37:14;;;;;;;8.95;6.30;;;5.00;79.90;;;;;;5082887;28;20024;-74
2021/05/03 05:39:40;;;;;;;15.07;7.70;;;5.00;80.10;;;;;;5082678;28;20370;-74
2021/05/03 05:42:06;;;;;;;11.93;7.55;;;5.10;80.30;;;;;;5061185;28;20135;-74
2021/05/03 05:44:33;;;;;;;8.00;6.60;;;5.10;80.10;;;;;;5084784;28;20551;-74
2021/05/03 05:46:58;;;;;;;11.65;7.25;;;5.20;80.00;;;;;;5089686;28;20511;-74
2021/05/03 05:49:24;;;;;;;8.98;6.50;;;5.30;79.60;;;;;;5092499;28;20039;-74
2021/05/03 05:51:50;;;;;;;11.48;7.53;;;5.40;79.30;;;;;;5093109;28;20067;-74
2021/05/03 05:54:15;;;;;;;12.95;7.10;;;5.50;79.00;;;;;;5093041;28;20032;-74
2021/05/03 05:56:41;;;;;;;12.55;7.65;;;5.60;78.80;;;;;;5083199;28;20393;-75
2021/05/03 05:59:07;;;;;;;11.18;6.70;;;5.70;78.50;;;;;;5054962;28;20100;-74
2021/05/03 06:01:33;;;;;;;12.65;7.20;;;5.80;78.30;;;;;;5072951;28;20039;-75
2021/05/03 06:03:59;;;;;;;11.73;6.80;;;6.00;78.00;;;;;;5072876;28;20032;-74
2021/05/03 06:06:24;;;;;;;11.50;6.85;;;6.10;77.70;;;;;;5088442;28;20116;-74
2021/05/03 06:08:50;;;;;;;12.27;7.68;;;6.20;77.40;;;;;;5054793;28;20388;-75
2021/05/03 06:11:16;;;;;;;13.75;7.25;;;6.20;77.10;;;;;;5072749;28;20036;-75
2021/05/03 06:13:42;;;;;;;11.95;7.05;;;6.30;77.10;;;;;;5055833;28;20029;-74
2021/05/03 06:16:08;;;;;;;16.33;7.38;;;6.40;76.90;;;;;;5054969;28;20043;-74
2021/05/03 06:18:34;;;;;;;14.32;7.13;;;6.50;76.80;;;;;;5088609;28;20485;-74
2021/05/03 06:21:00;;;;;;;13.93;6.85;;;6.50;76.50;;;;;;5054763;28;20016;-75
2021/05/03 06:23:25;;;;;;;13.75;7.60;;;6.60;76.30;;;;;;5072748;28;20056;-75
2021/05/03 06:25:51;;;;;;;14.57;7.45;;;6.70;76.10;;;;;;5054430;28;20076;-75
2021/05/03 06:28:17;;;;;;;10.35;7.20;;;6.80;75.90;;;;;;5083540;28;20032;-74
2021/05/03 06:30:42;;;;;;;17.25;7.50;;;6.90;75.70;;;;;;5092825;28;20032;-74
2021/05/03 06:33:08;;;;;;;12.35;7.32;;;6.90;75.30;;;;;;5074814;28;20036;-75
2021/05/03 06:35:34;;;;;;;17.17;7.68;;;7.00;75.30;;;;;;5092679;28;20420;-74
2021/05/03 06:38:00;;;;;;;14.88;8.30;;;7.10;75.10;;;;;;5092773;28;20104;-75
2021/05/03 06:40:26;;;;;;;12.05;7.45;;;7.20;74.80;;;;;;5083377;28;20571;-74
2021/05/03 06:42:52;;;;;;;11.85;7.03;;;7.40;74.50;;;;;;5071370;28;20409;-74
2021/05/03 06:45:20;;;;;;;14.50;8.23;;;7.60;74.00;;;;;;5054560;28;20033;-75
2021/05/03 06:47:46;;;;;;;13.80;7.35;;;7.80;73.50;;;;;;5089706;28;20054;-74
2021/05/03 06:50:13;;;;;;;13.25;7.28;;;7.90;72.60;;;;;;5061040;28;20060;-74
2021/05/03 06:52:45;;;;;;;11.98;7.03;;;8.10;72.20;;;;;;5079285;28;20043;-74
2021/05/03 06:55:13;;;;;;;11.77;7.30;;;8.40;71.50;;;;;;5092502;28;20094;-75
2021/05/03 06:57:39;;;;;;;11.00;6.68;;;8.50;70.90;;;;;;5092550;28;20027;-72
2021/05/03 07:00:07;;;;;;;12.23;6.78;;;8.70;70.10;;;;;;5090670;28;20048;-73
2021/05/03 07:02:33;;;;;;;16.80;7.40;;;8.90;69.30;;;;;;5074319;28;20077;-73
2021/05/03 07:04:59;;;;;;;10.07;6.55;;;9.00;69.30;;;;;;5092455;28;20038;-73
2021/05/03 07:07:25;;;;;;;12.30;5.70;;;9.20;68.10;;;;;;5058218;28;20119;-73
2021/05/03 07:09:50;;;;;;;10.18;5.80;;;9.40;66.80;;;;;;5078050;28;20032;-73
2021/05/03 07:12:19;;;;;;;7.88;5.28;;;9.50;66.20;;;;;;5096253;28;20090;-73
2021/05/03 07:14:44;;;;;;;13.40;5.25;;;9.70;65.60;;;;;;5048491;28;20040;-73
2021/05/03 07:17:10;;;;;;;10.60;5.57;;;9.90;64.80;;;;;;5076347;28;20384;-73
2021/05/03 07:19:37;;;;;;;10.65;5.55;;;9.90;64.30;;;;;;5057933;28;20028;-73
2021/05/03 07:22:07;;;;;;;7.53;4.97;;;10.00;63.00;;;;;;5057717;28;20021;-73
2021/05/03 07:24:33;;;;;;;11.50;5.75;;;10.20;63.20;;;;;;5091537;28;20062;-73
2021/05/03 07:26:59;;;;;;;10.18;5.38;;;10.40;62.40;;;;;;5075419;28;20048;-73
2021/05/03 07:29:25;;;;;;;9.18;5.53;;;10.60;61.40;;;;;;5078820;28;20085;-73
2021/05/03 07:31:50;;;;;;;8.25;4.80;;;10.80;60.60;;;;;;5095695;28;20043;-73
2021/05/03 07:34:17;;;;;;;9.18;4.72;;;10.90;59.70;;;;;;5060817;28;20040;-73
2021/05/03 07:36:43;;;;;;;7.95;5.00;;;11.00;59.40;;;;;;5077483;28;20062;-73
2021/05/03 07:39:08;;;;;;;6.88;4.53;;;11.20;58.60;;;;;;5077557;28;20108;-72
2021/05/03 07:41:35;;;;;;;9.27;5.15;;;11.30;57.80;;;;;;5095502;28;20024;-73
2021/05/03 07:44:00;;;;;;;10.85;5.10;;;11.40;57.30;;;;;;5083573;28;20037;-73
2021/05/03 07:46:27;;;;;;;6.57;4.78;;;11.50;56.80;;;;;;5062970;28;20388;-73
2021/05/03 07:48:58;;;;;;;7.68;4.78;;;11.60;56.40;;;;;;5075178;28;20335;-73
2021/05/03 07:51:24;;;;;;;11.18;4.78;;;11.70;57.30;;;;;;5097398;28;20020;-73
2021/05/03 07:53:51;;;;;;;11.65;4.63;;;11.80;58.00;;;;;;5107730;28;20028;-72
2021/05/03 07:56:17;;;;;;;9.45;4.53;;;11.90;56.90;;;;;;5095145;28;20023;-72
2021/05/03 07:58:45;;;;;;;11.90;5.22;;;12.00;56.50;;;;;;5089595;28;20443;-72
2021/05/03 08:01:11;;;;;;;10.38;4.78;;;12.10;55.60;;;;;;5094655;28;20031;-73
2021/05/03 08:03:40;;;;;;;7.22;4.70;;;12.20;55.20;;;;;;5094523;28;20531;-72
2021/05/03 08:06:07;;;;;;;9.15;5.25;;;12.20;55.10;;;;;;5064187;28;20078;-72
2021/05/03 08:08:33;;;;;;;12.25;6.10;;;12.20;55.00;;;;;;5095177;28;20032;-72
2021/05/03 08:10:59;;;;;;;10.93;5.60;;;12.30;54.90;;;;;;5110833;28;20039;-72
2021/05/03 08:13:29;;;;;;;8.43;5.47;;;12.40;54.40;;;;;;5094951;28;20042;-72
2021/05/03 08:15:58;;;;;;;8.43;5.07;;;12.50;54.60;;;;;;5076594;28;20058;-72
2021/05/03 08:18:24;;;;;;;8.30;5.10;;;12.70;53.30;;;;;;5078397;28;20427;-72
2021/05/03 08:20:50;;;;;;;10.48;5.60;;;12.80;53.30;;;;;;5094835;28;20031;-72
2021/05/03 08:23:19;;;;;;;9.55;5.07;;;13.00;52.90;;;;;;5094747;28;20024;-72
2021/05/03 08:25:49;;;;;;;;;;;13.10;51.70;;;;;;5094980;28;20384;-72
2021/05/03 08:28:15;;;;;;;9.75;5.28;;;13.20;51.50;;;;;;5076495;28;20002;-72
2021/05/03 08:30:41;;;;;;;12.02;5.55;;;13.30;51.50;;;;;;5076256;28;20101;-72
2021/05/03 08:33:07;;;;;;;9.07;5.45;;;13.40;52.00;;;;;;5087594;28;20078;-72
2021/05/03 08:35:33;;;;;;;10.63;6.50;;;13.60;50.10;;;;;;5056309;28;20036;-72
2021/05/03 08:38:00;;;;;;;7.18;5.13;;;13.70;50.40;;;;;;5056375;28;20035;-72
2021/05/03 08:40:26;;;;;;;10.07;5.80;;;13.80;50.00;;;;;;5073851;28;20032;-72
2021/05/03 08:42:51;;;;;;;7.28;5.32;;;13.90;49.70;;;;;;5075272;28;20435;-72
2021/05/03 08:45:17;;;;;;;6.88;5.20;;;14.00;49.50;;;;;;5064923;28;20028;-72
2021/05/03 08:47:57;;;;;;;10.35;5.82;;;14.10;48.90;;;;;;5093994;28;20032;-72
2021/05/03 08:50:32;;;;;;;8.90;5.88;;;14.20;49.10;;;;;;5094262;28;20028;-72
2021/05/03 08:52:58;;;;;;;10.80;6.25;;;14.30;48.40;;;;;;5075998;28;20114;-72
2021/05/03 08:55:24;;;;;;;7.40;5.55;;;14.40;47.90;;;;;;5075798;28;20024;-72
2021/05/03 08:57:50;;;;;;;9.68;5.78;;;14.50;48.20;;;;;;5094400;28;20024;-72
2021/05/03 09:00:16;;;;;;;7.95;5.88;;;14.60;48.20;;;;;;5094279;28;20024;-73
2021/05/03 09:02:46;;;;;;;13.45;6.28;;;14.70;47.70;;;;;;5073759;28;20029;-72
2021/05/03 09:05:13;;;;;;;8.68;5.78;;;14.80;47.80;;;;;;5073601;28;20033;-72
2021/05/03 09:07:50;;;;;;;9.77;6.45;;;14.90;47.80;;;;;;5070092;28;20038;-73
2021/05/03 09:10:18;;;;;;;10.35;5.60;;;15.00;47.10;;;;;;5089716;28;20423;-72
2021/05/03 09:12:44;;;;;;;8.98;6.28;;;15.10;47.10;;;;;;5055567;28;20053;-72
2021/05/03 09:15:11;;;;;;;8.05;6.20;;;15.30;46.50;;;;;;5060779;28;20078;-72
2021/05/03 09:17:39;;;;;;;11.55;6.47;;;15.40;46.40;;;;;;5093828;28;20111;-72
2021/05/03 09:20:09;;;;;;;10.23;6.23;;;15.40;45.60;;;;;;5087586;28;20031;-72
2021/05/03 09:22:49;;;;;;;9.40;6.15;;;15.40;45.50;;;;;;5093292;28;20012;-72
2021/05/03 09:25:37;;;;;;;8.35;5.32;;;15.50;46.80;;;;;;5074766;28;20119;-72
2021/05/03 09:28:07;;;;;;;9.10;6.10;;;15.60;45.60;;;;;;5074665;28;20054;-72
2021/05/03 09:30:38;;;;;;;8.50;6.07;;;15.60;45.70;;;;;;5074961;28;20051;-72
2021/05/03 09:33:18;;;;;;;15.43;6.57;;;15.60;45.50;;;;;;5093600;28;20031;-72
2021/05/03 09:35:45;;;;;;;7.78;5.85;;;15.50;45.30;;;;;;5093271;28;20028;-72
2021/05/03 09:38:36;;;;;;;8.38;5.97;;;15.40;45.80;;;;;;5075138;28;20024;-72
2021/05/03 09:41:22;;;;;;;7.50;5.53;;;15.60;45.40;;;;;;5072869;28;20543;-72
2021/05/03 09:43:54;;;;;;;13.10;5.80;;;15.80;45.90;;;;;;5055131;28;20032;-73
2021/05/03 09:46:35;;;;;;;10.95;6.03;;;16.00;45.10;;;;;;5072932;28;20055;-72
2021/05/03 09:49:08;;;;;;;10.63;6.72;;;16.20;44.70;;;;;;5055355;28;20099;-72
2021/05/03 09:51:38;;;;;;;7.93;6.28;;;16.30;43.90;;;;;;5073082;28;20373;-73
2021/05/03 09:54:11;;;;;;;9.68;6.57;;;16.40;43.40;;;;;;5100464;28;20051;-72
2021/05/03 09:56:50;;;;;;;9.38;6.47;;;16.40;43.20;;;;;;5084389;28;20028;-72
2021/05/03 09:59:35;;;;;;;8.05;6.35;;;16.50;44.00;;;;;;5072955;28;20027;-72
2021/05/03 10:02:06;;;;;;;10.57;7.00;;;16.60;44.50;;;;;;5072815;28;20040;-73
2021/05/03 10:04:33;;;;;;;10.95;6.68;;;16.80;44.40;;;;;;5072771;28;20427;-72
2021/05/03 10:07:00;;;;;;;10.02;6.35;;;16.90;43.70;;;;;;5072246;28;20029;-72
2021/05/03 10:09:27;;;;;;;10.02;6.57;;;17.00;42.90;;;;;;5054986;28;20067;-72
2021/05/03 10:11:53;;;;;;;8.57;6.05;;;17.10;43.10;;;;;;5084123;28;20032;-72
2021/05/03 10:14:20;;;;;;;8.35;6.68;;;17.20;43.10;;;;;;5073600;28;20381;-72
2021/05/03 10:16:47;;;;;;;10.00;6.25;;;17.40;42.90;;;;;;5073816;28;20028;-72
2021/05/03 10:19:17;;;;;;;7.97;6.30;;;17.40;42.30;;;;;;5094429;28;20029;-72
2021/05/03 10:21:43;;;;;;;11.32;6.65;;;17.40;41.50;;;;;;5079575;28;20024;-72
2021/05/03 10:24:12;;;;;;;8.68;6.53;;;17.30;42.00;;;;;;5074702;28;20483;-72
2021/05/03 10:26:38;;;;;;;10.10;6.00;;;17.20;42.40;;;;;;5092021;28;20051;-73
2021/05/03 10:29:04;;;;;;;8.18;6.35;;;17.10;42.90;;;;;;5092770;28;20698;-72
2021/05/03 10:32:03;;;;;;;10.00;6.70;;;17.10;42.50;;;;;;5084788;28;20060;-72
2021/05/03 10:34:40;;;;;;;10.52;6.18;;;17.20;42.50;;;;;;5080339;28;20032;-73
2021/05/03 10:37:31;;;;;;;7.07;6.03;;;17.50;41.80;;;;;;5065819;28;20481;-72
2021/05/03 10:40:02;;;;;;;6.63;5.90;;;17.60;41.60;;;;;;5068751;28;20028;-72
2021/05/03 10:42:28;;;;;;;17.02;6.68;;;17.40;41.30;;;;;;5078219;28;20020;-72
2021/05/03 10:45:13;;;;;;;7.43;5.90;;;17.40;41.20;;;;;;5076472;28;20032;-72
2021/05/03 10:47:45;;;;;;;7.70;6.22;;;17.40;40.80;;;;;;5092285;28;20028;-72
2021/05/03 10:52:53;;;;;;;10.35;6.75;;;17.00;41.50;;;;;;5082737;28;20063;-72
2021/05/03 10:55:19;;;;;;;16.95;6.68;;;16.70;41.70;;;;;;5077466;28;20024;-72
2021/05/03 10:57:58;;;;;;;11.88;6.18;;;16.50;42.20;;;;;;5079933;28;20107;-72
2021/05/03 11:00:32;;;;;;;7.82;5.35;;;16.60;41.20;;;;;;5096114;28;20565;-73
2021/05/03 11:02:58;;;;;;;6.25;5.53;;;16.80;41.50;;;;;;5083910;28;20024;-72
2021/05/03 11:05:26;;;;;;;8.90;5.82;;;17.10;41.10;;;;;;5077584;28;20051;-72
2021/05/03 11:08:04;;;;;;;10.50;6.05;;;17.50;40.40;;;;;;5086236;28;20028;-72
2021/05/03 11:11:06;;;;;;;9.30;6.25;;;17.60;39.70;;;;;;5064873;28;20085;-72
2021/05/03 11:16:25;;;;;;;7.22;5.45;;;17.10;39.90;;;;;;5096383;28;20532;-72
2021/05/03 11:18:53;;;;;;;10.70;5.85;;;16.80;40.20;;;;;;5095955;28;20020;-72
2021/05/03 11:21:19;;;;;;;8.50;5.60;;;16.90;40.40;;;;;;5094639;28;20034;-72
2021/05/03 11:23:46;;;;;;;7.70;5.53;;;16.90;40.30;;;;;;5109906;28;20472;-73
2021/05/03 11:26:31;;;;;;;6.45;5.32;;;17.00;40.00;;;;;;5076707;28;20131;-72
2021/05/03 11:29:06;;;;;;;8.95;6.10;;;17.20;39.10;;;;;;5077283;28;20032;-72
2021/05/03 11:31:32;;;;;;;7.05;5.40;;;17.30;39.40;;;;;;5095853;28;20028;-72
2021/05/03 11:34:18;;;;;;;8.10;5.93;;;17.40;38.70;;;;;;5095505;28;20032;-72
2021/05/03 11:36:52;;;;;;;7.43;5.38;;;17.30;38.70;;;;;;5095706;28;20377;-72
2021/05/03 11:44:59;;;;;;;11.43;5.78;;;17.40;40.30;;;;;;5060460;28;20040;-73
2021/05/03 11:47:33;;;;;;;6.57;5.60;;;17.30;39.30;;;;;;5057406;28;20429;-72
2021/05/03 11:49:59;;;;;;;7.72;5.30;;;17.20;39.30;;;;;;5075203;28;20081;-72
2021/05/03 11:52:32;;;;;;;6.30;4.60;;;17.30;39.70;;;;;;5075127;28;20036;-72
2021/05/03 11:55:09;;;;;;;8.65;4.50;;;17.30;39.40;;;;;;5070544;28;20032;-73
2021/05/03 11:57:54;;;;;;;8.45;4.95;;;17.40;37.90;;;;;;5077229;28;20039;-73
2021/05/03 12:00:23;;;;;;;8.82;5.18;;;17.30;38.30;;;;;;5095290;28;20485;-73
2021/05/03 12:03:01;;;;;;;;;;;17.30;38.20;;;;;;5095687;28;20031;-72
2021/05/03 12:05:27;;;;;;;6.70;4.75;;;17.20;39.00;;;;;;5094809;28;19909;-72
2021/05/03 12:07:52;;;;;;;7.43;4.47;;;17.30;38.60;;;;;;5074846;28;20030;-72
2021/05/03 12:10:20;;;;;;;6.00;3.97;;;17.30;38.30;;;;;;5074715;28;20439;-73
2021/05/03 12:12:52;;;;;;;5.50;4.18;;;17.20;38.20;;;;;;5074718;28;20397;-72
2021/05/03 12:15:25;;;;;;;4.82;3.90;;;17.20;37.70;;;;;;5074675;28;20028;-73
2021/05/03 12:17:51;;;;;;;7.38;4.18;;;17.10;37.60;;;;;;5074634;28;20024;-72
2021/05/03 12:20:19;;;;;;;9.60;4.07;;;17.20;37.80;;;;;;5094540;28;20380;-72
2021/05/03 12:22:57;;;;;;;7.97;3.92;;;17.30;37.40;;;;;;5094890;28;20468;-72
2021/05/03 12:25:24;;;;;;;6.43;3.85;;;17.30;37.30;;;;;;5094823;28;20485;-72
2021/05/03 12:27:50;;;;;;;4.80;3.85;;;17.30;37.10;;;;;;5094571;28;20075;-73
2021/05/03 12:30:16;;;;;;;9.48;3.50;;;17.40;37.00;;;;;;5094680;28;20469;-72
2021/05/03 12:32:42;;;;;;;9.27;2.97;;;17.50;36.10;;;;;;5072456;28;20082;-72
2021/05/03 12:35:13;;;;;;;4.70;4.00;;;17.50;35.80;;;;;;5060486;28;20135;-72
2021/05/03 12:37:40;;;;;;;6.22;3.88;;;17.50;35.60;;;;;;5094412;28;20025;-72
2021/05/03 12:40:12;;;;;;;5.30;3.90;;;17.50;36.00;;;;;;5094665;28;20036;-72
2021/05/03 12:42:39;;;;;;;7.50;4.65;;;17.50;36.60;;;;;;5076922;28;20020;-72
2021/05/03 12:45:17;;;;;;;6.47;3.83;;;17.50;36.00;;;;;;5056294;28;20101;-72
2021/05/03 12:50:31;;;;;;;6.35;3.80;;;17.50;37.00;;;;;;5088821;28;20063;-72
2021/05/03 13:01:28;;;;;;;9.32;3.33;;;18.10;36.70;;;;;;5088287;28;20016;-73
2021/05/03 13:12:24;;;;;;;7.30;3.20;;;18.70;35.20;;;;;;5073507;28;20025;-73
2021/05/03 13:29:16;;;;;;;4.72;3.28;;;18.50;34.50;;;;;;5098711;28;20748;-73
2021/05/03 13:31:46;;;;;;;7.47;3.63;;;18.20;35.20;;;;;;5073232;28;20028;-72
2021/05/03 13:34:16;;;;;;;5.65;3.70;;;18.00;35.70;;;;;;5103295;28;20056;-72
2021/05/03 13:36:45;;;;;;;4.13;3.13;;;17.90;35.30;;;;;;5093214;28;20035;-73
2021/05/03 13:39:11;;;;;;;;;;;18.00;35.30;;;;;;5091340;28;20028;-73
2021/05/03 13:41:38;;;;;;;7.38;3.13;;;18.20;34.30;;;;;;5084583;28;19999;-73
2021/05/03 13:44:06;;;;;;;7.45;2.75;;;18.40;34.80;;;;;;5078919;28;20028;-72
2021/05/03 13:46:32;;;;;;;5.53;3.28;;;18.60;34.30;;;;;;5085613;28;20036;-72
2021/05/03 13:48:58;;;;;;;4.63;3.10;;;18.70;34.40;;;;;;5086563;28;20020;-80
2021/05/03 13:51:25;;;;;;;4.70;3.53;;;18.80;34.70;;;;;;5069866;28;20122;-80
2021/05/03 13:53:51;;;;;;;3.85;3.20;;;18.90;35.00;;;;;;5088822;28;20051;-80
2021/05/03 13:56:17;;;;;;;4.38;3.72;;;19.00;34.60;;;;;;5053974;28;20486;-80